Zim Luanda — 9HA2029 — position and weather

sailwx.info

Track history (hours):
 
Tides and Currents Weather Stations Pressure Air Temp Water Temp Dewpoint Dewpoint Depression Visibility Wind Speed Wind Dir Waves Ship Positions

Zim Luanda

Last reported at 2016-Aug-30 16:33 UTC. Time now 2016-Aug-31 07:55 UTC.
Position N 37°03' W 011°10'.

Length 260 m; draft 9.6 m.

Type: Ship (hazmat cat A). MMSI: 249830000.

Date/timePositionNaut miles runAvg speedWind from/ knotsBaromVisibWave heightAir tempDewpointWater temp
2016-Aug-30 16:33N 37°03' W 011°10'1513.0
2016-Aug-30 15:26N 36°57' W 010°53'1413.2
2016-Aug-30 14:23N 36°51' W 010°37'1113.4
2016-Aug-30 13:33N 36°47' W 010°25'1313.2
2016-Aug-30 12:32N 36°41' W 010°09'1313.1
2016-Aug-30 11:33N 36°36' W 009°55'1413.3
2016-Aug-30 10:32N 36°30' W 009°39'1313.2
2016-Aug-30 09:33N 36°25' W 009°25'1313.2
2016-Aug-30 08:33N 36°19' W 009°10'1313.1
2016-Aug-30 07:33N 36°14' W 008°55'1414.0
2016-Aug-30 06:33N 36°13' W 008°38'1414.4
2016-Aug-30 05:33N 36°11' W 008°20'1414.4
2016-Aug-30 04:33N 36°09' W 008°02'1414.4
2016-Aug-30 03:33N 36°07' W 007°45'1514.6
2016-Aug-30 02:33N 36°05' W 007°27'1414.3
2016-Aug-30 01:33N 36°03' W 007°09'1614.3
2016-Aug-30 00:28N 36°01' W 006°50'5914.4
2016-Aug-29 20:24N 35°58' W 005°38'1214.5
2016-Aug-29 19:33N 36°01' W 005°23'1414.3
2016-Aug-29 18:33N 36°04' W 005°06'12214.5
2016-Aug-29 10:08N 36°23' W 002°36'813.7
2016-Aug-29 09:32N 36°24' W 002°26'1313.6
2016-Aug-29 08:33N 36°27' W 002°10'1413.8
2016-Aug-29 07:34N 36°36' W 001°57'1413.7
2016-Aug-29 06:33N 36°45' W 001°44'1515.1
2016-Aug-29 05:34N 36°55' W 001°30'1615.9
2016-Aug-29 04:34N 37°05' W 001°15'1616.0
2016-Aug-29 03:33N 37°16' W 000°60'3315.6
2016-Aug-29 01:26N 37°39' W 000°29'1415.2
2016-Aug-29 00:32N 37°50' W 000°20'1615.1
2016-Aug-28 23:29N 38°04' W 000°09'1815.3
2016-Aug-28 22:18N 38°19' E 000°03'1215.5
2016-Aug-28 21:33N 38°29' E 000°12'1615.5
2016-Aug-28 20:32N 38°42' E 000°22'1212.1
2016-Aug-28 19:31N 38°54' E 000°17'1413.6
2016-Aug-28 18:31N 39°04' E 000°06'1414.5
2016-Aug-28 17:32N 39°15' W 000°06'1414.2
2016-Aug-28 16:31N 39°26' W 000°18'1 1.0
2016-Aug-28 15:31N 39°27' W 000°19'0 0.0
2016-Aug-28 14:31N 39°27' W 000°19'0 0.0
2016-Aug-28 13:28N 39°27' W 000°19'0 0.0
2016-Aug-28 12:31N 39°27' W 000°19'0 0.0
2016-Aug-28 11:31N 39°27' W 000°19'0 0.0
2016-Aug-28 10:33N 39°27' W 000°19'4 3.9
2016-Aug-28 09:33N 39°24' W 000°16'0 0.3
2016-Aug-28 08:30N 39°23' W 000°16'0 0.0
2016-Aug-28 07:12N 39°23' W 000°16'0 0.0
2016-Aug-28 05:24N 39°23' W 000°16'0 0.1
2016-Aug-28 04:30N 39°23' W 000°16'0 0.0
2016-Aug-28 03:27N 39°23' W 000°16'0 0.2
2016-Aug-28 02:29N 39°23' W 000°16'10 9.9
2016-Aug-28 01:28N 39°28' W 000°04'5313.0
2016-Aug-27 21:22N 40°10' E 000°39'1012.8
2016-Aug-27 20:33N 40°18' E 000°48'1312.8
2016-Aug-27 19:33N 40°28' E 000°58'1312.7
2016-Aug-27 18:33N 40°40' E 001°04'1312.8
2016-Aug-27 17:33N 40°52' E 001°08'10 1.3
2016-Aug-27 10:04N 41°01' E 001°14'9 5.8
2016-Aug-27 08:33N 40°58' E 001°25'1313.1
2016-Aug-27 07:32N 41°01' E 001°43'1412.7
2016-Aug-27 06:25N 41°05' E 002°01'17 4.3
2016-Aug-27 02:24N 41°21' E 002°10'0 0.1
2016-Aug-26 22:32N 41°21' E 002°10'6 6.1
2016-Aug-26 21:31N 41°15' E 002°12'3 2.9
2016-Aug-26 20:33N 41°13' E 002°15'1111.3
2016-Aug-26 19:33N 41°19' E 002°28'1111.4
2016-Aug-26 18:33N 41°26' E 002°41'1211.6
2016-Aug-26 17:32N 41°31' E 002°55'1212.4
2016-Aug-26 16:33N 41°37' E 003°09'1312.7
2016-Aug-26 15:30N 41°42' E 003°25'1312.9
2016-Aug-26 14:32N 41°48' E 003°40'1312.8
2016-Aug-26 13:33N 41°54' E 003°55'1312.8
2016-Aug-26 12:33N 41°60' E 004°10'1312.8
2016-Aug-26 11:34N 42°06' E 004°26'1312.5
2016-Aug-26 10:33N 42°11' E 004°41'13013.0
2016-Aug-26 00:31N 43°16' E 007°15'1313.4
2016-Aug-25 23:32N 43°24' E 007°29'1313.4
2016-Aug-25 22:33N 43°32' E 007°44'1413.5
2016-Aug-25 21:33N 43°40' E 007°58'1313.4
2016-Aug-25 20:33N 43°48' E 008°13'1313.0
2016-Aug-25 19:33N 43°57' E 008°26'1312.9
2016-Aug-25 18:33N 44°06' E 008°39'1312.7
2016-Aug-25 17:33N 44°15' E 008°51'9 9.1
2016-Aug-25 16:33N 44°24' E 008°55'1 0.8
2016-Aug-25 15:33N 44°24' E 008°54'0 0.0
2016-Aug-25 14:33N 44°24' E 008°54'0 0.0
2016-Aug-25 13:33N 44°24' E 008°54'0 0.0
2016-Aug-25 12:30N 44°24' E 008°54'0 0.0
2016-Aug-25 11:33N 44°24' E 008°54'0 0.0
2016-Aug-25 10:33N 44°24' E 008°54'0 0.0
2016-Aug-25 09:33N 44°24' E 008°54'0 0.0
2016-Aug-25 08:30N 44°24' E 008°54'0 0.0
2016-Aug-25 07:30N 44°24' E 008°54'0 0.0
2016-Aug-25 06:33N 44°24' E 008°54'2 1.1
2016-Aug-25 04:33N 44°23' E 008°56'6 6.1
2016-Aug-25 03:34N 44°18' E 009°01'2 1.7
2016-Aug-25 02:34N 44°17' E 009°03'2 2.0
2016-Aug-25 01:33N 44°15' E 009°03'1312.6
2016-Aug-25 00:33N 44°03' E 009°10'1312.9
2016-Aug-24 23:33N 43°53' E 009°20'1313.0
2016-Aug-24 22:33N 43°44' E 009°33'1312.9
2016-Aug-24 21:33N 43°35' E 009°46'1212.3
2016-Aug-24 20:33N 43°30' E 010°02'1111.3
2016-Aug-24 19:33N 43°32' E 010°17'2 2.3
2016-Aug-24 18:31N 43°35' E 010°18'0 0.0
2016-Aug-24 17:31N 43°35' E 010°18'0 0.0
2016-Aug-24 16:31N 43°35' E 010°18'0 0.0
2016-Aug-24 15:31N 43°35' E 010°18'0 0.0
2016-Aug-24 14:31N 43°35' E 010°18'0 0.0
2016-Aug-24 13:25N 43°35' E 010°18'0 0.0
2016-Aug-24 12:31N 43°35' E 010°18'0 0.0
2016-Aug-24 11:31N 43°35' E 010°18'0 0.0
2016-Aug-24 10:34N 43°35' E 010°18'0 0.0
2016-Aug-24 09:31N 43°35' E 010°18'0 0.0
2016-Aug-24 08:31N 43°35' E 010°18'0 0.0
2016-Aug-24 07:31N 43°35' E 010°18'0 0.0
2016-Aug-24 06:31N 43°35' E 010°18'5 2.7
2016-Aug-24 04:33N 43°30' E 010°14'3 3.0
2016-Aug-24 03:33N 43°27' E 010°13'1313.1
2016-Aug-24 02:33N 43°14' E 010°10'1413.9
2016-Aug-24 01:33N 43°01' E 010°06'1413.9
2016-Aug-24 00:33N 42°47' E 010°02'1513.7
2016-Aug-23 23:28N 42°35' E 010°13'1314.0
2016-Aug-23 22:33N 42°26' E 010°26'7014.0
2016-Aug-23 17:34N 41°36' E 011°31'21714.0
2016-Aug-23 02:04N 38°60' E 014°50'813.5
2016-Aug-23 01:28N 38°54' E 014°58'1213.6
2016-Aug-23 00:33N 38°45' E 015°09'1313.3
2016-Aug-22 23:33N 38°36' E 015°21'1413.5
2016-Aug-22 22:33N 38°26' E 015°33'1212.4
2016-Aug-22 21:34N 38°16' E 015°43'1414.2
2016-Aug-22 20:33N 38°03' E 015°36'1312.6
2016-Aug-22 19:34N 37°52' E 015°44'1714.1
2016-Aug-22 18:21N 37°47' E 016°05'14414.1
2016-Aug-22 08:09N 37°09' E 018°60'21013.1
2016-Aug-21 16:10N 36°40' E 023°20'914.3
2016-Aug-21 15:33N 36°49' E 023°23'1414.3
2016-Aug-21 14:33N 37°02' E 023°28'1514.1
2016-Aug-21 13:31N 37°16' E 023°34'1414.0
2016-Aug-21 12:33N 37°29' E 023°39'1413.7
2016-Aug-21 11:33N 37°43' E 023°41'1413.8
2016-Aug-21 10:33N 37°56' E 023°36'1 1.2
2016-Aug-21 09:31N 37°57' E 023°36'0 0.0
2016-Aug-21 08:31N 37°57' E 023°36'0 0.0
2016-Aug-21 07:31N 37°57' E 023°36'0 0.0
2016-Aug-21 06:31N 37°57' E 023°36'0 0.0
2016-Aug-21 05:31N 37°57' E 023°36'0 0.0
2016-Aug-21 04:31N 37°57' E 023°36'0 0.0
2016-Aug-21 03:31N 37°57' E 023°36'0 0.0
2016-Aug-21 02:31N 37°57' E 023°36'0 0.0
2016-Aug-21 01:31N 37°57' E 023°36'0 0.0
2016-Aug-21 00:31N 37°57' E 023°36'0 0.0
2016-Aug-20 23:31N 37°57' E 023°36'0 0.0
2016-Aug-20 22:31N 37°57' E 023°36'0 0.0
2016-Aug-20 21:31N 37°57' E 023°36'0 0.0
2016-Aug-20 20:31N 37°57' E 023°36'0 0.0
2016-Aug-20 19:31N 37°57' E 023°36'0 0.2
2016-Aug-20 18:34N 37°57' E 023°36'7 7.1
2016-Aug-20 17:33N 37°51' E 023°39'  
Track history (hours):
 
Tides and Currents Weather Stations Pressure Air Temp Water Temp Dewpoint Dewpoint Depression Visibility Wind Speed Wind Dir Waves Ship Positions

Zim Luanda

Last reported at 2016-Aug-30 16:33 UTC. Time now 2016-Aug-31 07:55 UTC.
Position N 37°03' W 011°10'.

Length 260 m; draft 9.6 m.

Type: Ship (hazmat cat A). MMSI: 249830000.

Date/timePositionNaut miles runAvg speedWind from/ knotsBaromVisibWave heightAir tempDewpointWater temp
2016-Aug-30 16:33N 37°03' W 011°10'1513.0
2016-Aug-30 15:26N 36°57' W 010°53'1413.2
2016-Aug-30 14:23N 36°51' W 010°37'1113.4
2016-Aug-30 13:33N 36°47' W 010°25'1313.2
2016-Aug-30 12:32N 36°41' W 010°09'1313.1
2016-Aug-30 11:33N 36°36' W 009°55'1413.3
2016-Aug-30 10:32N 36°30' W 009°39'1313.2
2016-Aug-30 09:33N 36°25' W 009°25'1313.2
2016-Aug-30 08:33N 36°19' W 009°10'1313.1
2016-Aug-30 07:33N 36°14' W 008°55'1414.0
2016-Aug-30 06:33N 36°13' W 008°38'1414.4
2016-Aug-30 05:33N 36°11' W 008°20'1414.4
2016-Aug-30 04:33N 36°09' W 008°02'1414.4
2016-Aug-30 03:33N 36°07' W 007°45'1514.6
2016-Aug-30 02:33N 36°05' W 007°27'1414.3
2016-Aug-30 01:33N 36°03' W 007°09'1614.3
2016-Aug-30 00:28N 36°01' W 006°50'5914.4
2016-Aug-29 20:24N 35°58' W 005°38'1214.5
2016-Aug-29 19:33N 36°01' W 005°23'1414.3
2016-Aug-29 18:33N 36°04' W 005°06'12214.5
2016-Aug-29 10:08N 36°23' W 002°36'813.7
2016-Aug-29 09:32N 36°24' W 002°26'1313.6
2016-Aug-29 08:33N 36°27' W 002°10'1413.8
2016-Aug-29 07:34N 36°36' W 001°57'1413.7
2016-Aug-29 06:33N 36°45' W 001°44'1515.1
2016-Aug-29 05:34N 36°55' W 001°30'1615.9
2016-Aug-29 04:34N 37°05' W 001°15'1616.0
2016-Aug-29 03:33N 37°16' W 000°60'3315.6
2016-Aug-29 01:26N 37°39' W 000°29'1415.2
2016-Aug-29 00:32N 37°50' W 000°20'1615.1
2016-Aug-28 23:29N 38°04' W 000°09'1815.3
2016-Aug-28 22:18N 38°19' E 000°03'1215.5
2016-Aug-28 21:33N 38°29' E 000°12'1615.5
2016-Aug-28 20:32N 38°42' E 000°22'1212.1
2016-Aug-28 19:31N 38°54' E 000°17'1413.6
2016-Aug-28 18:31N 39°04' E 000°06'1414.5
2016-Aug-28 17:32N 39°15' W 000°06'1414.2
2016-Aug-28 16:31N 39°26' W 000°18'1 1.0
2016-Aug-28 15:31N 39°27' W 000°19'0 0.0
2016-Aug-28 14:31N 39°27' W 000°19'0 0.0
2016-Aug-28 13:28N 39°27' W 000°19'0 0.0
2016-Aug-28 12:31N 39°27' W 000°19'0 0.0
2016-Aug-28 11:31N 39°27' W 000°19'0 0.0
2016-Aug-28 10:33N 39°27' W 000°19'4 3.9
2016-Aug-28 09:33N 39°24' W 000°16'0 0.3
2016-Aug-28 08:30N 39°23' W 000°16'0 0.0
2016-Aug-28 07:12N 39°23' W 000°16'0 0.0
2016-Aug-28 05:24N 39°23' W 000°16'0 0.1
2016-Aug-28 04:30N 39°23' W 000°16'0 0.0
2016-Aug-28 03:27N 39°23' W 000°16'0 0.2
2016-Aug-28 02:29N 39°23' W 000°16'10 9.9
2016-Aug-28 01:28N 39°28' W 000°04'5313.0
2016-Aug-27 21:22N 40°10' E 000°39'1012.8
2016-Aug-27 20:33N 40°18' E 000°48'1312.8
2016-Aug-27 19:33N 40°28' E 000°58'1312.7
2016-Aug-27 18:33N 40°40' E 001°04'1312.8
2016-Aug-27 17:33N 40°52' E 001°08'10 1.3
2016-Aug-27 10:04N 41°01' E 001°14'9 5.8
2016-Aug-27 08:33N 40°58' E 001°25'1313.1
2016-Aug-27 07:32N 41°01' E 001°43'1412.7
2016-Aug-27 06:25N 41°05' E 002°01'17 4.3
2016-Aug-27 02:24N 41°21' E 002°10'0 0.1
2016-Aug-26 22:32N 41°21' E 002°10'6 6.1
2016-Aug-26 21:31N 41°15' E 002°12'3 2.9
2016-Aug-26 20:33N 41°13' E 002°15'1111.3
2016-Aug-26 19:33N 41°19' E 002°28'1111.4
2016-Aug-26 18:33N 41°26' E 002°41'1211.6
2016-Aug-26 17:32N 41°31' E 002°55'1212.4
2016-Aug-26 16:33N 41°37' E 003°09'1312.7
2016-Aug-26 15:30N 41°42' E 003°25'1312.9
2016-Aug-26 14:32N 41°48' E 003°40'1312.8
2016-Aug-26 13:33N 41°54' E 003°55'1312.8
2016-Aug-26 12:33N 41°60' E 004°10'1312.8
2016-Aug-26 11:34N 42°06' E 004°26'1312.5
2016-Aug-26 10:33N 42°11' E 004°41'13013.0
2016-Aug-26 00:31N 43°16' E 007°15'1313.4
2016-Aug-25 23:32N 43°24' E 007°29'1313.4
2016-Aug-25 22:33N 43°32' E 007°44'1413.5
2016-Aug-25 21:33N 43°40' E 007°58'1313.4
2016-Aug-25 20:33N 43°48' E 008°13'1313.0
2016-Aug-25 19:33N 43°57' E 008°26'1312.9
2016-Aug-25 18:33N 44°06' E 008°39'1312.7
2016-Aug-25 17:33N 44°15' E 008°51'9 9.1
2016-Aug-25 16:33N 44°24' E 008°55'1 0.8
2016-Aug-25 15:33N 44°24' E 008°54'0 0.0
2016-Aug-25 14:33N 44°24' E 008°54'0 0.0
2016-Aug-25 13:33N 44°24' E 008°54'0 0.0
2016-Aug-25 12:30N 44°24' E 008°54'0 0.0
2016-Aug-25 11:33N 44°24' E 008°54'0 0.0
2016-Aug-25 10:33N 44°24' E 008°54'0 0.0
2016-Aug-25 09:33N 44°24' E 008°54'0 0.0
2016-Aug-25 08:30N 44°24' E 008°54'0 0.0
2016-Aug-25 07:30N 44°24' E 008°54'0 0.0
2016-Aug-25 06:33N 44°24' E 008°54'2 1.1
2016-Aug-25 04:33N 44°23' E 008°56'6 6.1
2016-Aug-25 03:34N 44°18' E 009°01'2 1.7
2016-Aug-25 02:34N 44°17' E 009°03'2 2.0
2016-Aug-25 01:33N 44°15' E 009°03'1312.6
2016-Aug-25 00:33N 44°03' E 009°10'1312.9
2016-Aug-24 23:33N 43°53' E 009°20'1313.0
2016-Aug-24 22:33N 43°44' E 009°33'1312.9
2016-Aug-24 21:33N 43°35' E 009°46'1212.3
2016-Aug-24 20:33N 43°30' E 010°02'1111.3
2016-Aug-24 19:33N 43°32' E 010°17'2 2.3
2016-Aug-24 18:31N 43°35' E 010°18'0 0.0
2016-Aug-24 17:31N 43°35' E 010°18'0 0.0
2016-Aug-24 16:31N 43°35' E 010°18'0 0.0
2016-Aug-24 15:31N 43°35' E 010°18'0 0.0
2016-Aug-24 14:31N 43°35' E 010°18'0 0.0
2016-Aug-24 13:25N 43°35' E 010°18'0 0.0
2016-Aug-24 12:31N 43°35' E 010°18'0 0.0
2016-Aug-24 11:31N 43°35' E 010°18'0 0.0
2016-Aug-24 10:34N 43°35' E 010°18'0 0.0
2016-Aug-24 09:31N 43°35' E 010°18'0 0.0
2016-Aug-24 08:31N 43°35' E 010°18'0 0.0
2016-Aug-24 07:31N 43°35' E 010°18'0 0.0
2016-Aug-24 06:31N 43°35' E 010°18'5 2.7
2016-Aug-24 04:33N 43°30' E 010°14'3 3.0
2016-Aug-24 03:33N 43°27' E 010°13'1313.1
2016-Aug-24 02:33N 43°14' E 010°10'1413.9
2016-Aug-24 01:33N 43°01' E 010°06'1413.9
2016-Aug-24 00:33N 42°47' E 010°02'1513.7
2016-Aug-23 23:28N 42°35' E 010°13'1314.0
2016-Aug-23 22:33N 42°26' E 010°26'7014.0
2016-Aug-23 17:34N 41°36' E 011°31'21714.0
2016-Aug-23 02:04N 38°60' E 014°50'813.5
2016-Aug-23 01:28N 38°54' E 014°58'1213.6
2016-Aug-23 00:33N 38°45' E 015°09'1313.3
2016-Aug-22 23:33N 38°36' E 015°21'1413.5
2016-Aug-22 22:33N 38°26' E 015°33'1212.4
2016-Aug-22 21:34N 38°16' E 015°43'1414.2
2016-Aug-22 20:33N 38°03' E 015°36'1312.6
2016-Aug-22 19:34N 37°52' E 015°44'1714.1
2016-Aug-22 18:21N 37°47' E 016°05'14414.1
2016-Aug-22 08:09N 37°09' E 018°60'21013.1
2016-Aug-21 16:10N 36°40' E 023°20'914.3
2016-Aug-21 15:33N 36°49' E 023°23'1414.3
2016-Aug-21 14:33N 37°02' E 023°28'1514.1
2016-Aug-21 13:31N 37°16' E 023°34'1414.0
2016-Aug-21 12:33N 37°29' E 023°39'1413.7
2016-Aug-21 11:33N 37°43' E 023°41'1413.8
2016-Aug-21 10:33N 37°56' E 023°36'1 1.2
2016-Aug-21 09:31N 37°57' E 023°36'0 0.0
2016-Aug-21 08:31N 37°57' E 023°36'0 0.0
2016-Aug-21 07:31N 37°57' E 023°36'0 0.0
2016-Aug-21 06:31N 37°57' E 023°36'0 0.0
2016-Aug-21 05:31N 37°57' E 023°36'0 0.0
2016-Aug-21 04:31N 37°57' E 023°36'0 0.0
2016-Aug-21 03:31N 37°57' E 023°36'0 0.0
2016-Aug-21 02:31N 37°57' E 023°36'0 0.0
2016-Aug-21 01:31N 37°57' E 023°36'0 0.0
2016-Aug-21 00:31N 37°57' E 023°36'0 0.0
2016-Aug-20 23:31N 37°57' E 023°36'0 0.0
2016-Aug-20 22:31N 37°57' E 023°36'0 0.0
2016-Aug-20 21:31N 37°57' E 023°36'0 0.0
2016-Aug-20 20:31N 37°57' E 023°36'0 0.0
2016-Aug-20 19:31N 37°57' E 023°36'0 0.2
2016-Aug-20 18:34N 37°57' E 023°36'7 7.1
2016-Aug-20 17:33N 37°51' E 023°39'  

Dump ship's entire track history